Ignace, Canada
Current Conditions -  °F | °C
As of 11:00 PM on Tuesday 25 Nov 2014 (Local Time) from CYXL Reporting Station
Light Snow Light Snow  
Wind Chill:   Ceiling: 12000
Heat Index:   Visibility: 12mi
Dew Point:   Wind: 3mph
Humidity: 78%   Direction: 10°N
Pressure: 30.07"   Gusts: NA
Location:  49.42°N, 91.67°W
Report Text: CYXL 260500Z 01003KT 12SM -SN SCT068 OVC120 M15/M18 A3007 RMK AC3AC5 SLP221
Loading
Personal Weather Stations






























Interactive Weather Map New forecast layout! Learn more

10-Day Weather Forecast

Advertisements
Track Severe Weather on mobile